To NAV CANADA Home Page Login to a new session Search on AWWS site Disclaimer Vers la page française équivalente Tips FAQ What's new on the site To the Forecasts and Observations / NOTAM section To "File a Flight Plan" website Publications and other links Update of the User's profile FIC Telephone Numbers My Weather Data Folder Route Weather Data Regional Weather Data Local Weather Data To the Forecasts and Observations / NOTAM section
Request Generated 07/30/2021 at 07:22:58 UTC . Weather information available at that time is displayed.

METAR/TAF

MONTREAL/PIERRE-ELLIOTT-TRUDEAU INTL/QC    

METAR CYUL 300700Z 27003KT 6SM BR SCT042 OVC070 17/16 A2970 RMK SC4AC4 SLP058 DENSITY ALT 600FT=
METAR CYUL 300600Z 31005KT 6SM BR OVC050 17/16 A2971 RMK SC8 SLP062 DENSITY ALT 600FT=
METAR CYUL 300500Z 31003KT 300V360 6SM BR FEW006 OVC055 17/16 A2972 RMK SF2SC6 SLP066 DENSITY ALT 700FT=

TAF CYUL 300538Z 3006/3106 31005KT P6SM FEW020 BKN060 TEMPO 3006/3012
5SM -SHRA BR BKN020 BKN060
BECMG 3007/3009 29012KT
FM301200 32010G20KT P6SM BKN025 TEMPO 3012/3015 BKN020
FM301500 30015KT P6SM BKN030
BECMG 3016/3018 29012G22KT
FM302000 30012G22KT P6SM BKN050
FM310000 31012KT P6SM FEW050
BECMG 3104/3106 30008KT
RMK NXT FCST BY 300900Z=
Your time UTC time
Weather data provided by Environment Canada and NAV CANADA